createdAt,value
2018-05-26T00:01:06.280Z,15.27
2018-05-26T00:04:09.508Z,14.43
2018-05-26T00:07:11.975Z,15.83
2018-05-26T00:10:14.425Z,14.47
2018-05-26T00:13:17.654Z,14.50
2018-05-26T00:16:20.106Z,13.93
2018-05-26T00:19:23.334Z,13.87
2018-05-26T00:22:25.806Z,12.80
2018-05-26T00:25:28.280Z,12.73
2018-05-26T00:28:30.733Z,12.07
2018-05-26T00:31:33.190Z,11.97
2018-05-26T00:34:36.438Z,12.53
2018-05-26T00:37:38.899Z,11.20
2018-05-26T00:40:41.349Z,10.53
2018-05-26T00:43:44.577Z,10.43
2018-05-26T00:46:47.034Z,11.00
2018-05-26T00:49:49.505Z,12.97
2018-05-26T00:52:52.732Z,9.90
2018-05-26T00:55:55.189Z,10.83
2018-05-26T00:58:57.654Z,11.47
2018-05-26T01:02:00.109Z,10.43
2018-05-26T01:05:02.565Z,10.97
2018-05-26T01:08:05.042Z,10.33
2018-05-26T01:11:07.485Z,11.73
2018-05-26T01:14:09.953Z,10.80
2018-05-26T01:17:12.397Z,10.83
2018-05-26T01:20:15.623Z,9.97
2018-05-26T01:23:18.075Z,9.37
2018-05-26T01:26:20.523Z,9.60
2018-05-26T01:29:22.991Z,9.67
2018-05-26T01:32:25.439Z,9.77
2018-05-26T01:35:27.901Z,10.13
2018-05-26T01:38:30.358Z,9.27
2018-05-26T01:41:33.571Z,9.53
2018-05-26T01:44:36.027Z,8.57
2018-05-26T01:47:39.245Z,8.97
2018-05-26T01:50:41.706Z,9.67
2018-05-26T01:53:44.941Z,10.23
2018-05-26T01:56:47.394Z,10.07
2018-05-26T01:59:49.854Z,9.87
2018-05-26T02:02:53.065Z,10.00
2018-05-26T02:05:55.517Z,9.33
2018-05-26T02:08:58.747Z,12.60
2018-05-26T02:12:01.189Z,10.57
2018-05-26T02:15:04.419Z,9.37
2018-05-26T02:18:06.868Z,9.63
2018-05-26T02:21:09.325Z,9.80
2018-05-26T02:24:11.850Z,9.80
2018-05-26T02:27:14.301Z,11.03
2018-05-26T02:30:16.760Z,9.40
2018-05-26T02:33:19.223Z,10.60
2018-05-26T02:36:21.710Z,9.30
2018-05-26T02:39:24.149Z,10.20
2018-05-26T02:42:26.594Z,9.30
2018-05-26T02:45:29.050Z,10.13
2018-05-26T02:48:31.506Z,10.70
2018-05-26T02:51:33.958Z,9.10
2018-05-26T02:54:36.410Z,9.77
2018-05-26T02:57:38.863Z,9.63
2018-05-26T03:00:42.086Z,9.73
2018-05-26T03:03:44.560Z,12.10
2018-05-26T03:06:52.778Z,9.33
2018-05-26T03:10:00.970Z,9.10
2018-05-26T03:13:09.169Z,9.37
2018-05-26T03:19:50.466Z,10.40
2018-05-26T03:22:53.685Z,9.57
2018-05-26T03:25:56.157Z,9.70
2018-05-26T03:28:58.607Z,9.37
2018-05-26T03:32:01.061Z,9.53
2018-05-26T03:35:03.531Z,9.70
2018-05-26T03:38:05.982Z,9.97
2018-05-26T03:41:08.451Z,9.30
2018-05-26T03:44:10.895Z,9.13
2018-05-26T03:47:14.125Z,9.30
2018-05-26T03:50:16.589Z,10.43
2018-05-26T03:53:19.034Z,10.33
2018-05-26T03:56:33.402Z,9.90
2018-05-26T03:59:47.169Z,15.00
2018-05-26T04:02:49.617Z,11.40
2018-05-26T04:05:52.134Z,11.30
2018-05-26T04:08:54.554Z,11.10
2018-05-26T04:11:57.021Z,13.23
2018-05-26T04:14:59.496Z,10.77
2018-05-26T04:18:01.952Z,10.07
2018-05-26T04:21:04.432Z,10.87
2018-05-26T04:24:06.878Z,10.30
2018-05-26T04:27:09.347Z,10.20
2018-05-26T04:30:12.575Z,9.40
2018-05-26T04:33:15.023Z,9.60
2018-05-26T04:36:17.485Z,21.30
2018-05-26T04:39:20.703Z,13.17
2018-05-26T04:42:23.161Z,10.30
2018-05-26T04:45:25.654Z,9.27
2018-05-26T04:48:28.151Z,11.57
2018-05-26T04:51:30.662Z,11.30
2018-05-26T04:54:33.143Z,12.77
2018-05-26T04:57:35.628Z,12.00
2018-05-26T05:00:38.126Z,10.97
2018-05-26T05:03:40.608Z,10.90
2018-05-26T05:06:43.114Z,11.67
2018-05-26T05:09:46.381Z,9.63
2018-05-26T05:12:48.881Z,8.93
2018-05-26T05:15:51.437Z,10.03
2018-05-26T05:18:53.928Z,10.70
2018-05-26T05:21:56.431Z,9.90
2018-05-26T05:24:58.894Z,9.23
2018-05-26T05:28:01.393Z,8.97
2018-05-26T05:31:03.876Z,10.13
2018-05-26T05:34:06.359Z,8.47
2018-05-26T05:37:08.841Z,8.70
2018-05-26T05:40:11.323Z,8.43
2018-05-26T05:43:13.789Z,7.53
2018-05-26T05:46:16.271Z,6.50
2018-05-26T05:49:18.754Z,7.43
2018-05-26T05:52:21.222Z,6.03
2018-05-26T05:55:23.670Z,8.82
2018-05-26T05:58:26.142Z,6.60
2018-05-26T06:01:28.608Z,6.57
2018-05-26T06:04:31.045Z,6.47
2018-05-26T06:07:34.269Z,7.03
2018-05-26T06:10:36.710Z,6.68
2018-05-26T06:13:39.213Z,6.37
2018-05-26T06:16:41.673Z,7.28
2018-05-26T06:19:44.886Z,8.25
2018-05-26T06:22:48.115Z,9.60
2018-05-26T06:25:50.559Z,8.95
2018-05-26T06:28:53.034Z,7.05
2018-05-26T06:31:55.499Z,6.75
2018-05-26T06:34:58.717Z,6.37
2018-05-26T06:38:01.190Z,7.22
2018-05-26T06:41:03.637Z,6.95
2018-05-26T06:44:06.862Z,5.97
2018-05-26T06:47:09.313Z,6.37
2018-05-26T06:50:11.782Z,6.20
2018-05-26T06:53:14.238Z,6.07
2018-05-26T06:56:16.814Z,6.55
2018-05-26T06:59:19.350Z,12.90
2018-05-26T07:02:22.562Z,8.35
2018-05-26T07:05:25.012Z,7.05
2018-05-26T07:08:27.474Z,6.72
2018-05-26T07:11:30.691Z,7.43
2018-05-26T07:14:33.150Z,7.07
2018-05-26T07:17:36.377Z,5.93
2018-05-26T07:20:38.843Z,6.90
2018-05-26T07:23:41.293Z,7.15
2018-05-26T07:26:44.535Z,5.93
2018-05-26T07:29:47.010Z,6.15
2018-05-26T07:32:49.485Z,5.87
2018-05-26T07:35:51.939Z,5.90
2018-05-26T07:38:54.421Z,6.25
2018-05-26T07:41:56.874Z,7.10
2018-05-26T07:45:00.093Z,7.40
2018-05-26T07:48:02.570Z,7.50
2018-05-26T07:51:05.037Z,5.75
2018-05-26T07:54:08.238Z,5.45
2018-05-26T07:57:10.704Z,6.78
2018-05-26T08:00:13.174Z,5.60
2018-05-26T08:03:15.607Z,5.20
2018-05-26T08:06:18.053Z,7.43
2018-05-26T08:09:20.524Z,6.05
2018-05-26T08:12:22.982Z,5.05
2018-05-26T08:15:26.194Z,5.68
2018-05-26T08:18:28.657Z,5.07
2018-05-26T08:21:31.100Z,5.18
2018-05-26T08:24:33.568Z,4.82
2018-05-26T08:27:39.655Z,5.28
2018-05-26T08:30:42.114Z,4.90
2018-05-26T08:33:45.357Z,4.93
2018-05-26T08:36:48.553Z,4.95
2018-05-26T08:39:51.012Z,5.18
2018-05-26T08:42:54.242Z,5.12
2018-05-26T08:45:56.689Z,5.03
2018-05-26T08:48:59.153Z,5.57
2018-05-26T08:55:10.369Z,5.93
2018-05-26T08:58:12.885Z,5.40
2018-05-26T09:01:15.326Z,5.63
2018-05-26T09:04:17.793Z,5.57
2018-05-26T09:07:20.999Z,5.67
2018-05-26T09:10:23.475Z,5.63
2018-05-26T09:13:25.925Z,5.40
2018-05-26T09:16:29.129Z,5.40
2018-05-26T09:19:32.361Z,5.47
2018-05-26T09:22:34.805Z,6.23
2018-05-26T09:25:37.284Z,7.00
2018-05-26T09:28:39.738Z,6.43
2018-05-26T09:31:42.181Z,6.17
2018-05-26T09:34:44.654Z,5.77
2018-05-26T09:37:47.099Z,6.53
2018-05-26T09:40:49.561Z,7.93
2018-05-26T09:43:52.793Z,7.77
2018-05-26T09:46:55.232Z,7.33
2018-05-26T09:49:58.455Z,6.60
2018-05-26T09:53:00.930Z,6.87
2018-05-26T09:56:03.419Z,8.77
2018-05-26T09:59:05.850Z,7.90
2018-05-26T10:02:09.061Z,8.20
2018-05-26T10:05:11.526Z,7.03
2018-05-26T10:08:14.800Z,6.50
2018-05-26T10:11:17.255Z,7.20
2018-05-26T10:14:19.715Z,7.10
2018-05-26T10:17:22.161Z,7.37
2018-05-26T10:20:24.622Z,7.17
2018-05-26T10:23:27.849Z,6.20
2018-05-26T10:26:30.296Z,6.77
2018-05-26T10:29:33.536Z,9.97
2018-05-26T10:32:35.994Z,6.40
2018-05-26T10:35:38.493Z,6.27
2018-05-26T10:38:40.901Z,6.50
2018-05-26T10:41:43.349Z,6.03
2018-05-26T10:44:45.818Z,6.83
2018-05-26T10:47:48.270Z,6.57
2018-05-26T10:50:50.734Z,6.37
2018-05-26T10:53:53.198Z,6.30
2018-05-26T10:56:56.414Z,6.70
2018-05-26T10:59:58.865Z,7.00
2018-05-26T11:03:02.083Z,6.30
2018-05-26T11:06:04.594Z,5.93
2018-05-26T11:09:07.053Z,6.23
2018-05-26T11:12:09.519Z,5.87
2018-05-26T11:15:11.969Z,6.40
2018-05-26T11:18:15.202Z,7.67
2018-05-26T11:21:17.670Z,6.80
2018-05-26T11:24:20.200Z,10.33
2018-05-26T11:27:22.601Z,6.33
2018-05-26T11:30:25.845Z,6.93
2018-05-26T11:33:28.274Z,6.40
2018-05-26T11:36:31.494Z,5.63
2018-05-26T11:39:33.962Z,5.63
2018-05-26T11:42:36.405Z,5.37
2018-05-26T11:45:38.873Z,6.07
2018-05-26T11:48:41.320Z,7.40
2018-05-26T11:51:43.802Z,5.80
2018-05-26T11:54:46.259Z,6.93
2018-05-26T11:57:48.750Z,5.77
2018-05-26T12:00:51.341Z,7.10
2018-05-26T12:03:53.780Z,5.80
2018-05-26T12:06:56.246Z,6.37
2018-05-26T12:09:58.735Z,7.60
2018-05-26T12:13:01.186Z,6.70
2018-05-26T12:16:04.422Z,6.53
2018-05-26T12:19:06.871Z,8.23
2018-05-26T12:22:09.390Z,6.57
2018-05-26T12:25:11.853Z,6.67
2018-05-26T12:28:14.296Z,6.80
2018-05-26T12:31:17.533Z,6.60
2018-05-26T12:34:19.988Z,8.70
2018-05-26T12:37:22.455Z,6.67
2018-05-26T12:40:24.908Z,7.00
2018-05-26T12:43:35.746Z,6.37
2018-05-26T12:46:38.222Z,7.37
2018-05-26T12:49:40.666Z,6.63
2018-05-26T12:52:43.129Z,7.23
2018-05-26T12:55:45.585Z,6.67
2018-05-26T12:58:49.497Z,6.73
2018-05-26T13:01:52.742Z,6.77
2018-05-26T13:04:55.173Z,7.20
2018-05-26T13:07:58.407Z,7.83
2018-05-26T13:11:00.895Z,7.30
2018-05-26T13:14:03.342Z,8.03
2018-05-26T13:17:05.797Z,7.57
2018-05-26T13:20:08.234Z,8.00
2018-05-26T13:23:10.702Z,7.27
2018-05-26T13:26:13.165Z,7.67
2018-05-26T13:29:15.605Z,7.97
2018-05-26T13:32:18.857Z,7.87
2018-05-26T13:35:21.306Z,8.33
2018-05-26T13:38:23.762Z,7.90
2018-05-26T13:41:26.977Z,7.90
2018-05-26T13:44:29.421Z,7.87
2018-05-26T13:47:32.663Z,11.70
2018-05-26T13:50:35.118Z,9.93
2018-05-26T13:53:38.400Z,7.37
2018-05-26T13:56:40.799Z,7.73
2018-05-26T13:59:43.242Z,7.93
2018-05-26T14:02:46.466Z,8.13
2018-05-26T14:05:48.927Z,8.47
2018-05-26T14:08:51.381Z,8.27
2018-05-26T14:11:53.849Z,7.80
2018-05-26T14:14:56.293Z,7.70
2018-05-26T14:17:58.762Z,17.00
2018-05-26T14:21:01.222Z,12.87
2018-05-26T14:24:03.681Z,8.87
2018-05-26T14:27:06.143Z,9.10
2018-05-26T14:30:08.585Z,7.83
2018-05-26T14:33:11.053Z,7.50
2018-05-26T14:36:13.494Z,7.47
2018-05-26T14:39:15.958Z,8.00
2018-05-26T14:42:19.206Z,7.60
2018-05-26T14:45:21.669Z,7.70
2018-05-26T14:48:24.138Z,7.53
2018-05-26T14:51:26.594Z,7.20
2018-05-26T14:54:29.817Z,7.40
2018-05-26T14:57:32.277Z,8.23
2018-05-26T15:00:34.717Z,8.47
2018-05-26T15:03:37.173Z,8.27
2018-05-26T15:06:39.634Z,8.17
2018-05-26T15:09:42.103Z,8.53
2018-05-26T15:12:44.684Z,7.83
2018-05-26T15:15:47.009Z,7.80
2018-05-26T15:18:50.237Z,7.90
2018-05-26T15:21:52.676Z,7.93
2018-05-26T15:24:55.911Z,7.97
2018-05-26T15:27:58.388Z,7.93
2018-05-26T15:31:00.817Z,7.80
2018-05-26T15:34:03.282Z,8.37
2018-05-26T15:37:05.726Z,8.73
2018-05-26T15:40:08.190Z,8.87
2018-05-26T15:43:10.661Z,8.10
2018-05-26T15:46:13.106Z,7.97
2018-05-26T15:49:15.562Z,9.10
2018-05-26T15:52:18.020Z,8.67
2018-05-26T15:55:20.500Z,8.13
2018-05-26T15:58:22.955Z,7.20
2018-05-26T16:01:25.406Z,7.80
2018-05-26T16:04:28.638Z,8.30
2018-05-26T16:07:31.083Z,8.63
2018-05-26T16:10:34.337Z,9.50
2018-05-26T16:13:36.810Z,7.50
2018-05-26T16:16:39.254Z,8.23
2018-05-26T16:19:41.705Z,8.90
2018-05-26T16:22:44.170Z,9.37
2018-05-26T16:25:47.374Z,8.87
2018-05-26T16:28:49.831Z,8.37
2018-05-26T16:31:52.283Z,9.57
2018-05-26T16:34:54.742Z,8.13
2018-05-26T16:37:57.229Z,8.67
2018-05-26T16:40:59.685Z,7.63
2018-05-26T16:44:02.137Z,7.87
2018-05-26T16:47:04.592Z,8.00
2018-05-26T16:50:07.058Z,7.67
2018-05-26T16:53:09.514Z,9.47
2018-05-26T16:56:11.969Z,8.57
2018-05-26T16:59:14.433Z,7.53
2018-05-26T17:02:16.889Z,7.97
2018-05-26T17:05:20.121Z,7.93
2018-05-26T17:08:22.590Z,8.50
2018-05-26T17:11:25.042Z,7.60
2018-05-26T17:14:28.274Z,12.77
2018-05-26T17:17:30.743Z,8.00
2018-05-26T17:20:33.197Z,8.63
2018-05-26T17:23:35.668Z,10.23
2018-05-26T17:26:38.110Z,8.00
2018-05-26T17:29:40.581Z,8.03
2018-05-26T17:32:43.034Z,7.77
2018-05-26T17:35:45.502Z,8.80
2018-05-26T17:38:47.980Z,8.47
2018-05-26T17:41:50.421Z,8.30
2018-05-26T17:44:53.659Z,8.20
2018-05-26T17:47:56.120Z,8.20
2018-05-26T17:50:58.577Z,8.83
2018-05-26T17:54:01.805Z,9.00
2018-05-26T17:57:04.257Z,13.27
2018-05-26T18:00:06.711Z,8.87
2018-05-26T18:03:09.980Z,8.53
2018-05-26T18:06:12.388Z,8.63
2018-05-26T18:09:15.634Z,8.13
2018-05-26T18:12:18.077Z,9.30
2018-05-26T18:15:20.536Z,8.80
2018-05-26T18:18:23.749Z,9.30
2018-05-26T18:21:26.210Z,8.70
2018-05-26T18:24:29.460Z,9.73
2018-05-26T18:27:31.901Z,8.50
2018-05-26T18:30:34.372Z,13.23
2018-05-26T18:33:36.823Z,9.67
2018-05-26T18:36:40.050Z,9.50
2018-05-26T18:39:42.524Z,8.77
2018-05-26T18:42:44.961Z,8.83
2018-05-26T18:45:47.431Z,8.33
2018-05-26T18:48:49.884Z,7.57
2018-05-26T18:51:52.344Z,7.60
2018-05-26T18:54:54.810Z,7.70
2018-05-26T18:57:57.264Z,9.37
2018-05-26T19:01:00.489Z,8.00
2018-05-26T19:04:02.933Z,8.10
2018-05-26T19:07:05.398Z,7.20
2018-05-26T19:10:07.857Z,7.80
2018-05-26T19:13:10.306Z,7.63
2018-05-26T19:16:12.785Z,7.60
2018-05-26T19:19:15.238Z,7.77
2018-05-26T19:22:17.715Z,7.77
2018-05-26T19:25:20.187Z,7.70
2018-05-26T19:28:22.645Z,8.87
2018-05-26T19:31:25.870Z,16.30
2018-05-26T19:34:28.334Z,8.53
2018-05-26T19:37:30.804Z,8.47
2018-05-26T19:40:33.253Z,8.90
2018-05-26T19:43:36.486Z,7.27
2018-05-26T19:46:38.962Z,8.33
2018-05-26T19:49:41.400Z,8.17
2018-05-26T19:52:43.874Z,7.77
2018-05-26T19:55:46.330Z,8.90
2018-05-26T19:58:49.605Z,8.37
2018-05-26T20:01:52.094Z,7.73
2018-05-26T20:04:54.555Z,7.00
2018-05-26T20:07:57.018Z,7.97
2018-05-26T20:10:59.473Z,7.00
2018-05-26T20:14:02.693Z,7.63
2018-05-26T20:17:05.145Z,7.50
2018-05-26T20:20:08.362Z,7.60
2018-05-26T20:23:10.842Z,7.00
2018-05-26T20:26:13.302Z,7.60
2018-05-26T20:29:15.741Z,7.70
2018-05-26T20:32:18.217Z,8.10
2018-05-26T20:35:20.675Z,9.33
2018-05-26T20:38:23.137Z,8.63
2018-05-26T20:41:25.595Z,9.80
2018-05-26T20:44:28.046Z,8.43
2018-05-26T20:47:31.270Z,8.07
2018-05-26T20:50:33.715Z,7.63
2018-05-26T20:53:36.177Z,7.87
2018-05-26T20:56:38.645Z,7.40
2018-05-26T20:59:41.089Z,8.27
2018-05-26T21:02:43.555Z,8.33
2018-05-26T21:05:46.001Z,8.73
2018-05-26T21:08:49.227Z,8.50
2018-05-26T21:11:51.677Z,8.00
2018-05-26T21:14:54.894Z,9.57
2018-05-26T21:17:57.371Z,7.97
2018-05-26T21:20:59.829Z,7.77
2018-05-26T21:24:03.060Z,8.50
2018-05-26T21:27:05.509Z,7.10
2018-05-26T21:30:07.970Z,8.13
2018-05-26T21:33:11.197Z,7.93
2018-05-26T21:36:13.662Z,8.27
2018-05-26T21:39:16.131Z,8.77
2018-05-26T21:42:19.342Z,8.10
2018-05-26T21:45:21.794Z,8.53
2018-05-26T21:48:25.022Z,8.10
2018-05-26T21:51:27.469Z,7.80
2018-05-26T21:54:30.709Z,8.47
2018-05-26T21:57:33.166Z,8.60
2018-05-26T22:00:35.625Z,8.47
2018-05-26T22:03:38.085Z,8.47
2018-05-26T22:06:41.318Z,8.50
2018-05-26T22:09:43.785Z,8.77
2018-05-26T22:12:46.248Z,8.93
2018-05-26T22:15:48.693Z,8.20
2018-05-26T22:18:51.149Z,8.57
2018-05-26T22:21:53.622Z,8.33
2018-05-26T22:24:56.085Z,8.27
2018-05-26T22:27:58.554Z,8.93
2018-05-26T22:31:00.999Z,8.53
2018-05-26T22:34:04.227Z,8.43
2018-05-26T22:37:06.673Z,9.37
2018-05-26T22:40:09.137Z,9.47
2018-05-26T22:43:12.359Z,9.53
2018-05-26T22:46:14.810Z,8.73
2018-05-26T22:49:18.029Z,8.73
2018-05-26T22:52:20.485Z,8.50
2018-05-26T22:55:23.718Z,7.40
2018-05-26T22:58:26.176Z,8.70
2018-05-26T23:01:28.625Z,7.73
2018-05-26T23:04:31.857Z,7.63
2018-05-26T23:07:34.331Z,9.00
2018-05-26T23:10:36.777Z,8.90
2018-05-26T23:13:40.007Z,9.13
2018-05-26T23:16:42.454Z,8.90
2018-05-26T23:19:45.678Z,8.27
2018-05-26T23:22:48.134Z,8.70
2018-05-26T23:25:50.586Z,8.70
2018-05-26T23:28:53.052Z,8.20
2018-05-26T23:31:55.492Z,8.70
2018-05-26T23:34:57.949Z,8.83
2018-05-26T23:38:00.410Z,9.23
2018-05-26T23:41:03.634Z,9.03
2018-05-26T23:44:06.104Z,9.53
2018-05-26T23:47:08.554Z,9.53
2018-05-26T23:50:11.793Z,9.27
2018-05-26T23:53:14.248Z,10.00
2018-05-26T23:56:16.696Z,8.87
2018-05-26T23:59:19.925Z,7.73
